sensor_id;sensor_type;location;lat;lon;timestamp;temperature;humidity
14172;DHT22;7165;52.388;4.928;2023-04-06T00:01:18;6.70;99.90
14172;DHT22;7165;52.388;4.928;2023-04-06T00:03:45;6.70;99.90
14172;DHT22;7165;52.388;4.928;2023-04-06T00:06:12;6.80;99.90
14172;DHT22;7165;52.388;4.928;2023-04-06T00:08:38;6.80;99.90
14172;DHT22;7165;52.388;4.928;2023-04-06T00:11:06;6.70;99.90
14172;DHT22;7165;52.388;4.928;2023-04-06T00:13:34;6.80;99.90
14172;DHT22;7165;52.388;4.928;2023-04-06T00:16:01;6.80;99.90
14172;DHT22;7165;52.388;4.928;2023-04-06T00:18:28;6.80;99.90
14172;DHT22;7165;52.388;4.928;2023-04-06T00:20:54;6.80;99.90
14172;DHT22;7165;52.388;4.928;2023-04-06T00:23:21;6.80;99.90
14172;DHT22;7165;52.388;4.928;2023-04-06T00:25:48;6.90;99.90
14172;DHT22;7165;52.388;4.928;2023-04-06T00:28:15;6.80;99.90
14172;DHT22;7165;52.388;4.928;2023-04-06T00:30:43;6.80;99.90
14172;DHT22;7165;52.388;4.928;2023-04-06T00:33:10;6.80;99.90
14172;DHT22;7165;52.388;4.928;2023-04-06T00:35:36;6.80;99.90
14172;DHT22;7165;52.388;4.928;2023-04-06T00:38:04;6.80;99.90
14172;DHT22;7165;52.388;4.928;2023-04-06T00:40:30;6.70;99.90
14172;DHT22;7165;52.388;4.928;2023-04-06T00:42:58;6.80;99.90
14172;DHT22;7165;52.388;4.928;2023-04-06T00:45:25;6.80;99.90
14172;DHT22;7165;52.388;4.928;2023-04-06T00:47:53;6.80;99.90
14172;DHT22;7165;52.388;4.928;2023-04-06T00:50:19;6.80;99.90
14172;DHT22;7165;52.388;4.928;2023-04-06T00:52:46;6.80;99.90
14172;DHT22;7165;52.388;4.928;2023-04-06T00:55:13;6.80;99.90
14172;DHT22;7165;52.388;4.928;2023-04-06T00:57:39;6.80;99.90
14172;DHT22;7165;52.388;4.928;2023-04-06T01:00:07;6.80;99.90
14172;DHT22;7165;52.388;4.928;2023-04-06T01:02:35;6.80;99.90
14172;DHT22;7165;52.388;4.928;2023-04-06T01:05:03;6.80;99.90
14172;DHT22;7165;52.388;4.928;2023-04-06T01:07:30;6.80;99.90
14172;DHT22;7165;52.388;4.928;2023-04-06T01:09:57;6.80;99.90
14172;DHT22;7165;52.388;4.928;2023-04-06T01:12:24;6.80;99.90
14172;DHT22;7165;52.388;4.928;2023-04-06T01:14:51;6.80;99.90
14172;DHT22;7165;52.388;4.928;2023-04-06T01:17:17;6.80;99.90
14172;DHT22;7165;52.388;4.928;2023-04-06T01:19:44;6.80;99.90
14172;DHT22;7165;52.388;4.928;2023-04-06T01:22:15;6.80;99.90
14172;DHT22;7165;52.388;4.928;2023-04-06T01:24:42;6.80;99.90
14172;DHT22;7165;52.388;4.928;2023-04-06T01:27:09;6.80;99.90
14172;DHT22;7165;52.388;4.928;2023-04-06T01:29:35;6.80;99.90
14172;DHT22;7165;52.388;4.928;2023-04-06T01:32:02;6.70;99.90
14172;DHT22;7165;52.388;4.928;2023-04-06T01:34:29;6.70;99.90
14172;DHT22;7165;52.388;4.928;2023-04-06T01:36:56;6.70;99.90
14172;DHT22;7165;52.388;4.928;2023-04-06T01:39:25;6.80;99.90
14172;DHT22;7165;52.388;4.928;2023-04-06T01:41:51;6.80;99.90
14172;DHT22;7165;52.388;4.928;2023-04-06T01:44:18;6.80;99.90
14172;DHT22;7165;52.388;4.928;2023-04-06T01:46:45;6.80;99.90
14172;DHT22;7165;52.388;4.928;2023-04-06T01:49:12;6.80;99.90
14172;DHT22;7165;52.388;4.928;2023-04-06T01:51:39;6.80;99.90
14172;DHT22;7165;52.388;4.928;2023-04-06T01:54:05;6.80;99.90
14172;DHT22;7165;52.388;4.928;2023-04-06T01:56:33;6.80;99.90
14172;DHT22;7165;52.388;4.928;2023-04-06T01:59:00;6.80;99.90
14172;DHT22;7165;52.388;4.928;2023-04-06T02:01:27;6.90;99.90
14172;DHT22;7165;52.388;4.928;2023-04-06T02:03:54;6.90;99.90
14172;DHT22;7165;52.388;4.928;2023-04-06T02:06:20;6.90;99.90
14172;DHT22;7165;52.388;4.928;2023-04-06T02:08:47;6.90;99.90
14172;DHT22;7165;52.388;4.928;2023-04-06T02:11:14;6.90;99.90
14172;DHT22;7165;52.388;4.928;2023-04-06T02:13:42;6.90;99.90
14172;DHT22;7165;52.388;4.928;2023-04-06T02:16:08;6.90;99.90
14172;DHT22;7165;52.388;4.928;2023-04-06T02:18:35;6.90;99.90
14172;DHT22;7165;52.388;4.928;2023-04-06T02:21:02;6.90;99.90
14172;DHT22;7165;52.388;4.928;2023-04-06T02:23:29;6.90;99.90
14172;DHT22;7165;52.388;4.928;2023-04-06T02:25:55;7.00;99.90
14172;DHT22;7165;52.388;4.928;2023-04-06T02:28:22;6.90;99.90
14172;DHT22;7165;52.388;4.928;2023-04-06T02:30:50;7.00;99.90
14172;DHT22;7165;52.388;4.928;2023-04-06T02:33:16;7.00;99.90
14172;DHT22;7165;52.388;4.928;2023-04-06T02:35:44;7.00;99.90
14172;DHT22;7165;52.388;4.928;2023-04-06T02:38:11;7.00;99.90
14172;DHT22;7165;52.388;4.928;2023-04-06T02:40:38;7.00;99.90
14172;DHT22;7165;52.388;4.928;2023-04-06T02:43:04;7.00;99.90
14172;DHT22;7165;52.388;4.928;2023-04-06T02:45:31;7.10;99.90
14172;DHT22;7165;52.388;4.928;2023-04-06T02:47:59;7.00;99.90
14172;DHT22;7165;52.388;4.928;2023-04-06T02:50:26;7.00;99.90
14172;DHT22;7165;52.388;4.928;2023-04-06T02:52:52;7.00;99.90
14172;DHT22;7165;52.388;4.928;2023-04-06T02:55:19;7.00;99.90
14172;DHT22;7165;52.388;4.928;2023-04-06T02:57:46;7.00;99.90
14172;DHT22;7165;52.388;4.928;2023-04-06T03:00:13;7.00;99.90
14172;DHT22;7165;52.388;4.928;2023-04-06T03:02:39;7.00;99.90
14172;DHT22;7165;52.388;4.928;2023-04-06T03:05:08;7.00;99.90
14172;DHT22;7165;52.388;4.928;2023-04-06T03:07:34;7.00;99.90
14172;DHT22;7165;52.388;4.928;2023-04-06T03:10:01;6.90;99.90
14172;DHT22;7165;52.388;4.928;2023-04-06T03:12:28;6.90;99.90
14172;DHT22;7165;52.388;4.928;2023-04-06T03:14:54;6.90;99.90
14172;DHT22;7165;52.388;4.928;2023-04-06T03:17:21;6.90;99.90
14172;DHT22;7165;52.388;4.928;2023-04-06T03:19:47;6.90;99.90
14172;DHT22;7165;52.388;4.928;2023-04-06T03:22:15;6.90;99.90
14172;DHT22;7165;52.388;4.928;2023-04-06T03:24:42;6.90;99.90
14172;DHT22;7165;52.388;4.928;2023-04-06T03:27:09;6.90;99.90
14172;DHT22;7165;52.388;4.928;2023-04-06T03:29:35;6.90;99.90
14172;DHT22;7165;52.388;4.928;2023-04-06T03:32:02;6.90;99.90
14172;DHT22;7165;52.388;4.928;2023-04-06T03:34:29;6.90;99.90
14172;DHT22;7165;52.388;4.928;2023-04-06T03:36:56;6.90;99.90
14172;DHT22;7165;52.388;4.928;2023-04-06T03:39:23;6.90;99.90
14172;DHT22;7165;52.388;4.928;2023-04-06T03:41:50;6.80;99.90
14172;DHT22;7165;52.388;4.928;2023-04-06T03:44:17;6.80;99.90
14172;DHT22;7165;52.388;4.928;2023-04-06T03:46:44;6.80;99.90
14172;DHT22;7165;52.388;4.928;2023-04-06T03:49:11;6.80;99.90
14172;DHT22;7165;52.388;4.928;2023-04-06T03:51:38;6.80;99.90
14172;DHT22;7165;52.388;4.928;2023-04-06T03:54:05;6.80;99.90
14172;DHT22;7165;52.388;4.928;2023-04-06T03:56:33;6.90;99.90
14172;DHT22;7165;52.388;4.928;2023-04-06T03:58:59;6.80;99.90
14172;DHT22;7165;52.388;4.928;2023-04-06T04:01:27;6.80;99.90
14172;DHT22;7165;52.388;4.928;2023-04-06T04:03:53;6.90;99.90
14172;DHT22;7165;52.388;4.928;2023-04-06T04:06:20;6.80;99.90
14172;DHT22;7165;52.388;4.928;2023-04-06T04:08:47;6.80;99.90
14172;DHT22;7165;52.388;4.928;2023-04-06T04:11:13;6.90;99.90
14172;DHT22;7165;52.388;4.928;2023-04-06T04:13:42;6.90;99.90
14172;DHT22;7165;52.388;4.928;2023-04-06T04:16:09;6.90;99.90
14172;DHT22;7165;52.388;4.928;2023-04-06T04:18:35;6.90;99.90
14172;DHT22;7165;52.388;4.928;2023-04-06T04:21:02;6.90;99.90
14172;DHT22;7165;52.388;4.928;2023-04-06T04:23:29;6.90;99.90
14172;DHT22;7165;52.388;4.928;2023-04-06T04:25:55;6.90;99.90
14172;DHT22;7165;52.388;4.928;2023-04-06T04:28:22;6.90;99.90
14172;DHT22;7165;52.388;4.928;2023-04-06T04:30:50;6.90;99.90
14172;DHT22;7165;52.388;4.928;2023-04-06T04:33:17;6.80;99.90
14172;DHT22;7165;52.388;4.928;2023-04-06T04:35:43;6.80;99.90
14172;DHT22;7165;52.388;4.928;2023-04-06T04:38:10;6.80;99.90
14172;DHT22;7165;52.388;4.928;2023-04-06T04:40:37;6.80;99.90
14172;DHT22;7165;52.388;4.928;2023-04-06T04:43:03;6.90;99.90
14172;DHT22;7165;52.388;4.928;2023-04-06T04:45:30;6.90;99.90
14172;DHT22;7165;52.388;4.928;2023-04-06T04:47:58;6.90;99.90
14172;DHT22;7165;52.388;4.928;2023-04-06T04:50:25;6.90;99.90
14172;DHT22;7165;52.388;4.928;2023-04-06T04:52:51;6.90;99.90
14172;DHT22;7165;52.388;4.928;2023-04-06T04:55:18;6.90;99.90
14172;DHT22;7165;52.388;4.928;2023-04-06T04:57:45;6.90;99.90
14172;DHT22;7165;52.388;4.928;2023-04-06T05:00:12;7.00;99.90
14172;DHT22;7165;52.388;4.928;2023-04-06T05:02:39;7.00;99.90
14172;DHT22;7165;52.388;4.928;2023-04-06T05:05:08;6.90;99.90
14172;DHT22;7165;52.388;4.928;2023-04-06T05:07:35;6.90;99.90
14172;DHT22;7165;52.388;4.928;2023-04-06T05:10:02;6.90;99.90
14172;DHT22;7165;52.388;4.928;2023-04-06T05:12:28;6.90;99.90
14172;DHT22;7165;52.388;4.928;2023-04-06T05:14:55;6.90;99.90
14172;DHT22;7165;52.388;4.928;2023-04-06T05:17:22;6.90;99.90
14172;DHT22;7165;52.388;4.928;2023-04-06T05:19:49;6.80;99.90
14172;DHT22;7165;52.388;4.928;2023-04-06T05:22:17;6.80;99.90
14172;DHT22;7165;52.388;4.928;2023-04-06T05:24:43;6.80;99.90
14172;DHT22;7165;52.388;4.928;2023-04-06T05:27:10;6.80;99.90
14172;DHT22;7165;52.388;4.928;2023-04-06T05:29:37;6.80;99.90
14172;DHT22;7165;52.388;4.928;2023-04-06T05:32:04;6.80;99.90
14172;DHT22;7165;52.388;4.928;2023-04-06T05:34:31;6.80;99.90
14172;DHT22;7165;52.388;4.928;2023-04-06T05:36:58;6.70;99.90
14172;DHT22;7165;52.388;4.928;2023-04-06T05:39:26;6.70;99.90
14172;DHT22;7165;52.388;4.928;2023-04-06T05:41:52;6.70;99.90
14172;DHT22;7165;52.388;4.928;2023-04-06T05:44:19;6.70;99.90
14172;DHT22;7165;52.388;4.928;2023-04-06T05:46:46;6.70;99.90
14172;DHT22;7165;52.388;4.928;2023-04-06T05:49:12;6.70;99.90
14172;DHT22;7165;52.388;4.928;2023-04-06T05:51:39;6.80;99.90
14172;DHT22;7165;52.388;4.928;2023-04-06T05:54:05;6.80;99.90
14172;DHT22;7165;52.388;4.928;2023-04-06T05:56:33;6.80;99.90
14172;DHT22;7165;52.388;4.928;2023-04-06T05:59:00;6.80;99.90
14172;DHT22;7165;52.388;4.928;2023-04-06T06:01:27;6.90;99.90
14172;DHT22;7165;52.388;4.928;2023-04-06T06:03:54;6.90;99.90
14172;DHT22;7165;52.388;4.928;2023-04-06T06:06:21;7.00;99.90
14172;DHT22;7165;52.388;4.928;2023-04-06T06:08:47;7.10;99.90
14172;DHT22;7165;52.388;4.928;2023-04-06T06:11:14;7.20;99.90
14172;DHT22;7165;52.388;4.928;2023-04-06T06:13:42;7.30;99.90
14172;DHT22;7165;52.388;4.928;2023-04-06T06:16:08;7.40;99.90
14172;DHT22;7165;52.388;4.928;2023-04-06T06:18:35;7.40;99.90
14172;DHT22;7165;52.388;4.928;2023-04-06T06:21:02;7.60;99.90
14172;DHT22;7165;52.388;4.928;2023-04-06T06:23:29;7.70;99.90
14172;DHT22;7165;52.388;4.928;2023-04-06T06:25:56;7.70;99.90
14172;DHT22;7165;52.388;4.928;2023-04-06T06:28:23;7.80;99.90
14172;DHT22;7165;52.388;4.928;2023-04-06T06:30:51;7.80;99.90
14172;DHT22;7165;52.388;4.928;2023-04-06T06:33:18;7.90;99.90
14172;DHT22;7165;52.388;4.928;2023-04-06T06:35:45;7.90;99.90
14172;DHT22;7165;52.388;4.928;2023-04-06T06:38:11;7.90;99.90
14172;DHT22;7165;52.388;4.928;2023-04-06T06:40:39;7.90;99.90
14172;DHT22;7165;52.388;4.928;2023-04-06T06:43:05;7.90;99.90
14172;DHT22;7165;52.388;4.928;2023-04-06T06:45:32;7.90;99.90
14172;DHT22;7165;52.388;4.928;2023-04-06T06:48:00;7.80;99.90
14172;DHT22;7165;52.388;4.928;2023-04-06T06:50:27;7.80;99.90
14172;DHT22;7165;52.388;4.928;2023-04-06T06:52:53;7.80;99.90
14172;DHT22;7165;52.388;4.928;2023-04-06T06:55:20;7.80;99.90
14172;DHT22;7165;52.388;4.928;2023-04-06T06:57:47;7.80;99.90
14172;DHT22;7165;52.388;4.928;2023-04-06T07:00:14;7.80;99.90
14172;DHT22;7165;52.388;4.928;2023-04-06T07:02:40;7.80;99.90
14172;DHT22;7165;52.388;4.928;2023-04-06T07:05:09;7.90;99.90
14172;DHT22;7165;52.388;4.928;2023-04-06T07:07:35;7.90;99.90
14172;DHT22;7165;52.388;4.928;2023-04-06T07:10:02;7.90;99.90
14172;DHT22;7165;52.388;4.928;2023-04-06T07:12:29;7.90;99.90
14172;DHT22;7165;52.388;4.928;2023-04-06T07:14:56;8.00;99.90
14172;DHT22;7165;52.388;4.928;2023-04-06T07:17:22;8.00;99.90
14172;DHT22;7165;52.388;4.928;2023-04-06T07:19:49;8.10;99.90
14172;DHT22;7165;52.388;4.928;2023-04-06T07:22:17;8.10;99.90
14172;DHT22;7165;52.388;4.928;2023-04-06T07:24:44;8.10;99.90
14172;DHT22;7165;52.388;4.928;2023-04-06T07:27:10;8.20;99.90
14172;DHT22;7165;52.388;4.928;2023-04-06T07:29:37;8.30;99.90
14172;DHT22;7165;52.388;4.928;2023-04-06T07:32:04;8.40;99.90
14172;DHT22;7165;52.388;4.928;2023-04-06T07:34:31;8.40;99.90
14172;DHT22;7165;52.388;4.928;2023-04-06T07:36:57;8.50;99.90
14172;DHT22;7165;52.388;4.928;2023-04-06T07:39:25;8.50;99.90
14172;DHT22;7165;52.388;4.928;2023-04-06T07:41:52;8.60;99.90
14172;DHT22;7165;52.388;4.928;2023-04-06T07:44:19;8.70;99.90
14172;DHT22;7165;52.388;4.928;2023-04-06T07:46:46;8.70;99.90
14172;DHT22;7165;52.388;4.928;2023-04-06T07:49:12;8.80;99.90
14172;DHT22;7165;52.388;4.928;2023-04-06T07:51:39;8.80;99.90
14172;DHT22;7165;52.388;4.928;2023-04-06T07:54:06;8.90;99.90
14172;DHT22;7165;52.388;4.928;2023-04-06T07:56:34;8.90;99.90
14172;DHT22;7165;52.388;4.928;2023-04-06T07:59:00;8.90;99.90
14172;DHT22;7165;52.388;4.928;2023-04-06T08:01:28;9.00;99.90
14172;DHT22;7165;52.388;4.928;2023-04-06T08:03:55;9.00;99.90
14172;DHT22;7165;52.388;4.928;2023-04-06T08:06:23;9.10;99.90
14172;DHT22;7165;52.388;4.928;2023-04-06T08:08:50;9.00;99.90
14172;DHT22;7165;52.388;4.928;2023-04-06T08:11:16;9.10;99.90
14172;DHT22;7165;52.388;4.928;2023-04-06T08:13:44;9.20;99.90
14172;DHT22;7165;52.388;4.928;2023-04-06T08:16:11;9.30;99.90
14172;DHT22;7165;52.388;4.928;2023-04-06T08:18:38;9.40;99.90
14172;DHT22;7165;52.388;4.928;2023-04-06T08:21:04;9.50;99.90
14172;DHT22;7165;52.388;4.928;2023-04-06T08:23:31;9.60;99.90
14172;DHT22;7165;52.388;4.928;2023-04-06T08:25:58;9.70;99.90
14172;DHT22;7165;52.388;4.928;2023-04-06T08:28:24;9.80;99.90
14172;DHT22;7165;52.388;4.928;2023-04-06T08:30:52;9.80;99.90
14172;DHT22;7165;52.388;4.928;2023-04-06T08:33:19;9.90;99.90
14172;DHT22;7165;52.388;4.928;2023-04-06T08:35:45;10.00;99.90
14172;DHT22;7165;52.388;4.928;2023-04-06T08:38:12;10.00;99.90
14172;DHT22;7165;52.388;4.928;2023-04-06T08:40:39;10.10;99.90
14172;DHT22;7165;52.388;4.928;2023-04-06T08:43:09;10.20;99.90
14172;DHT22;7165;52.388;4.928;2023-04-06T08:45:40;10.30;99.90
14172;DHT22;7165;52.388;4.928;2023-04-06T08:48:08;10.30;99.90
14172;DHT22;7165;52.388;4.928;2023-04-06T08:50:35;10.30;99.90
14172;DHT22;7165;52.388;4.928;2023-04-06T08:53:02;10.40;99.90
14172;DHT22;7165;52.388;4.928;2023-04-06T08:55:29;10.40;99.90
14172;DHT22;7165;52.388;4.928;2023-04-06T08:57:56;10.60;99.90
14172;DHT22;7165;52.388;4.928;2023-04-06T09:00:24;10.60;99.90
14172;DHT22;7165;52.388;4.928;2023-04-06T09:02:53;10.70;99.90
14172;DHT22;7165;52.388;4.928;2023-04-06T09:05:24;10.70;99.90
14172;DHT22;7165;52.388;4.928;2023-04-06T09:07:51;10.70;99.90
14172;DHT22;7165;52.388;4.928;2023-04-06T09:10:18;10.70;99.90
14172;DHT22;7165;52.388;4.928;2023-04-06T09:12:46;10.80;99.90
14172;DHT22;7165;52.388;4.928;2023-04-06T09:15:18;10.80;99.90
14172;DHT22;7165;52.388;4.928;2023-04-06T09:17:45;10.80;99.90
14172;DHT22;7165;52.388;4.928;2023-04-06T09:20:12;10.80;99.90
14172;DHT22;7165;52.388;4.928;2023-04-06T09:22:40;10.80;99.90
14172;DHT22;7165;52.388;4.928;2023-04-06T09:25:08;10.70;99.90
14172;DHT22;7165;52.388;4.928;2023-04-06T09:27:36;10.60;99.90
14172;DHT22;7165;52.388;4.928;2023-04-06T09:30:05;10.50;99.90
14172;DHT22;7165;52.388;4.928;2023-04-06T09:32:32;10.50;99.90
14172;DHT22;7165;52.388;4.928;2023-04-06T09:35:10;10.50;99.90
14172;DHT22;7165;52.388;4.928;2023-04-06T09:37:37;10.40;99.90
14172;DHT22;7165;52.388;4.928;2023-04-06T09:40:06;10.30;99.90
14172;DHT22;7165;52.388;4.928;2023-04-06T09:42:33;10.30;99.90
14172;DHT22;7165;52.388;4.928;2023-04-06T09:45:00;10.30;99.90
14172;DHT22;7165;52.388;4.928;2023-04-06T09:47:27;10.20;99.90
14172;DHT22;7165;52.388;4.928;2023-04-06T09:49:56;10.20;99.90
14172;DHT22;7165;52.388;4.928;2023-04-06T09:52:24;10.10;99.90
14172;DHT22;7165;52.388;4.928;2023-04-06T09:54:55;10.10;99.90
14172;DHT22;7165;52.388;4.928;2023-04-06T09:57:31;10.10;99.90
14172;DHT22;7165;52.388;4.928;2023-04-06T10:00:03;10.10;99.90
14172;DHT22;7165;52.388;4.928;2023-04-06T10:02:39;10.10;99.90
14172;DHT22;7165;52.388;4.928;2023-04-06T10:05:09;10.00;99.90
14172;DHT22;7165;52.388;4.928;2023-04-06T10:07:40;10.00;99.90
14172;DHT22;7165;52.388;4.928;2023-04-06T10:10:08;9.90;99.90
14172;DHT22;7165;52.388;4.928;2023-04-06T10:12:38;9.90;99.90
14172;DHT22;7165;52.388;4.928;2023-04-06T10:15:06;10.00;99.90
14172;DHT22;7165;52.388;4.928;2023-04-06T10:17:33;10.00;99.90
14172;DHT22;7165;52.388;4.928;2023-04-06T10:20:05;10.00;99.90
14172;DHT22;7165;52.388;4.928;2023-04-06T10:22:43;10.00;99.90
14172;DHT22;7165;52.388;4.928;2023-04-06T10:25:16;10.00;99.90
14172;DHT22;7165;52.388;4.928;2023-04-06T10:27:44;10.00;99.90
14172;DHT22;7165;52.388;4.928;2023-04-06T10:30:11;10.00;99.90
14172;DHT22;7165;52.388;4.928;2023-04-06T10:32:41;10.00;99.90
14172;DHT22;7165;52.388;4.928;2023-04-06T10:35:09;9.90;99.90
14172;DHT22;7165;52.388;4.928;2023-04-06T10:37:50;9.90;99.90
14172;DHT22;7165;52.388;4.928;2023-04-06T10:40:23;10.00;99.90
14172;DHT22;7165;52.388;4.928;2023-04-06T10:42:52;10.00;99.90
14172;DHT22;7165;52.388;4.928;2023-04-06T10:45:21;10.00;99.90
14172;DHT22;7165;52.388;4.928;2023-04-06T10:47:48;10.00;99.90
14172;DHT22;7165;52.388;4.928;2023-04-06T10:50:15;10.00;99.90
14172;DHT22;7165;52.388;4.928;2023-04-06T10:52:44;10.10;99.90
14172;DHT22;7165;52.388;4.928;2023-04-06T10:55:12;10.10;99.90
14172;DHT22;7165;52.388;4.928;2023-04-06T10:57:39;10.10;99.90
14172;DHT22;7165;52.388;4.928;2023-04-06T11:00:08;10.10;99.90
14172;DHT22;7165;52.388;4.928;2023-04-06T11:02:36;10.00;99.90
14172;DHT22;7165;52.388;4.928;2023-04-06T11:05:03;10.00;99.90
14172;DHT22;7165;52.388;4.928;2023-04-06T11:07:30;9.90;99.90
14172;DHT22;7165;52.388;4.928;2023-04-06T11:09:57;10.00;99.90
14172;DHT22;7165;52.388;4.928;2023-04-06T11:12:24;10.00;99.90
14172;DHT22;7165;52.388;4.928;2023-04-06T11:14:55;10.00;99.90
14172;DHT22;7165;52.388;4.928;2023-04-06T11:17:28;9.90;99.90
14172;DHT22;7165;52.388;4.928;2023-04-06T11:19:55;9.90;99.90
14172;DHT22;7165;52.388;4.928;2023-04-06T11:22:21;9.90;99.90
14172;DHT22;7165;52.388;4.928;2023-04-06T11:24:48;9.90;99.90
14172;DHT22;7165;52.388;4.928;2023-04-06T11:27:15;10.00;99.90
14172;DHT22;7165;52.388;4.928;2023-04-06T11:29:42;10.10;99.90
14172;DHT22;7165;52.388;4.928;2023-04-06T11:32:11;10.00;99.90
14172;DHT22;7165;52.388;4.928;2023-04-06T11:34:48;10.00;99.90
14172;DHT22;7165;52.388;4.928;2023-04-06T11:37:14;9.90;99.90
14172;DHT22;7165;52.388;4.928;2023-04-06T11:39:46;9.90;99.90
14172;DHT22;7165;52.388;4.928;2023-04-06T11:42:13;9.90;99.90
14172;DHT22;7165;52.388;4.928;2023-04-06T11:44:42;9.80;99.90
14172;DHT22;7165;52.388;4.928;2023-04-06T11:47:12;9.80;99.90
14172;DHT22;7165;52.388;4.928;2023-04-06T11:49:39;9.80;99.90
14172;DHT22;7165;52.388;4.928;2023-04-06T11:52:16;9.70;99.90
14172;DHT22;7165;52.388;4.928;2023-04-06T11:54:43;9.70;99.90
14172;DHT22;7165;52.388;4.928;2023-04-06T11:57:09;9.70;99.90
14172;DHT22;7165;52.388;4.928;2023-04-06T11:59:36;9.60;99.90
14172;DHT22;7165;52.388;4.928;2023-04-06T12:02:03;9.60;99.90
14172;DHT22;7165;52.388;4.928;2023-04-06T12:04:31;9.50;99.90
14172;DHT22;7165;52.388;4.928;2023-04-06T12:06:58;9.50;99.90
14172;DHT22;7165;52.388;4.928;2023-04-06T12:09:26;9.50;99.90
14172;DHT22;7165;52.388;4.928;2023-04-06T12:11:53;9.50;99.90
14172;DHT22;7165;52.388;4.928;2023-04-06T12:14:21;9.50;99.90
14172;DHT22;7165;52.388;4.928;2023-04-06T12:16:48;9.50;99.90
14172;DHT22;7165;52.388;4.928;2023-04-06T12:19:14;9.40;99.90
14172;DHT22;7165;52.388;4.928;2023-04-06T12:21:41;9.40;99.90
14172;DHT22;7165;52.388;4.928;2023-04-06T12:24:08;9.40;99.90
14172;DHT22;7165;52.388;4.928;2023-04-06T12:26:36;9.30;99.90
14172;DHT22;7165;52.388;4.928;2023-04-06T12:29:03;9.40;99.90
14172;DHT22;7165;52.388;4.928;2023-04-06T12:31:32;9.40;99.90
14172;DHT22;7165;52.388;4.928;2023-04-06T12:33:59;9.40;99.90
14172;DHT22;7165;52.388;4.928;2023-04-06T12:36:26;9.40;99.90
14172;DHT22;7165;52.388;4.928;2023-04-06T12:38:53;9.30;99.90
14172;DHT22;7165;52.388;4.928;2023-04-06T12:41:20;9.30;99.90
14172;DHT22;7165;52.388;4.928;2023-04-06T12:43:48;9.40;99.90
14172;DHT22;7165;52.388;4.928;2023-04-06T12:46:17;9.50;99.90
14172;DHT22;7165;52.388;4.928;2023-04-06T12:48:44;9.50;99.90
14172;DHT22;7165;52.388;4.928;2023-04-06T12:51:10;9.50;99.90
14172;DHT22;7165;52.388;4.928;2023-04-06T12:53:37;9.40;99.90
14172;DHT22;7165;52.388;4.928;2023-04-06T12:56:12;9.40;99.90
14172;DHT22;7165;52.388;4.928;2023-04-06T12:58:39;9.40;99.90
14172;DHT22;7165;52.388;4.928;2023-04-06T13:01:08;9.30;99.90
14172;DHT22;7165;52.388;4.928;2023-04-06T13:03:36;9.30;99.90
14172;DHT22;7165;52.388;4.928;2023-04-06T13:06:03;9.30;99.90
14172;DHT22;7165;52.388;4.928;2023-04-06T13:08:30;9.30;99.90
14172;DHT22;7165;52.388;4.928;2023-04-06T13:10:57;9.30;99.90
14172;DHT22;7165;52.388;4.928;2023-04-06T13:13:25;9.30;99.90
14172;DHT22;7165;52.388;4.928;2023-04-06T13:15:52;9.30;99.90
14172;DHT22;7165;52.388;4.928;2023-04-06T13:18:20;9.30;99.90
14172;DHT22;7165;52.388;4.928;2023-04-06T13:20:48;9.30;99.90
14172;DHT22;7165;52.388;4.928;2023-04-06T13:23:15;9.30;99.90
14172;DHT22;7165;52.388;4.928;2023-04-06T13:25:42;9.20;99.90
14172;DHT22;7165;52.388;4.928;2023-04-06T13:28:09;9.20;99.90
14172;DHT22;7165;52.388;4.928;2023-04-06T13:30:36;9.20;99.90
14172;DHT22;7165;52.388;4.928;2023-04-06T13:33:03;9.20;99.90
14172;DHT22;7165;52.388;4.928;2023-04-06T13:35:31;9.20;99.90
14172;DHT22;7165;52.388;4.928;2023-04-06T13:37:58;9.20;99.90
14172;DHT22;7165;52.388;4.928;2023-04-06T13:40:25;9.20;99.90
14172;DHT22;7165;52.388;4.928;2023-04-06T13:42:51;9.10;99.90
14172;DHT22;7165;52.388;4.928;2023-04-06T13:45:18;9.20;99.90
14172;DHT22;7165;52.388;4.928;2023-04-06T13:47:45;9.10;99.90
14172;DHT22;7165;52.388;4.928;2023-04-06T13:50:11;9.20;99.90
14172;DHT22;7165;52.388;4.928;2023-04-06T13:52:39;9.20;99.90
14172;DHT22;7165;52.388;4.928;2023-04-06T13:55:07;9.30;99.90
14172;DHT22;7165;52.388;4.928;2023-04-06T13:57:34;9.30;99.90
14172;DHT22;7165;52.388;4.928;2023-04-06T14:00:01;9.20;99.90
14172;DHT22;7165;52.388;4.928;2023-04-06T14:02:28;9.30;99.90
14172;DHT22;7165;52.388;4.928;2023-04-06T14:04:54;9.20;99.90
14172;DHT22;7165;52.388;4.928;2023-04-06T14:07:21;9.20;99.90
14172;DHT22;7165;52.388;4.928;2023-04-06T14:09:49;9.30;99.90
14172;DHT22;7165;52.388;4.928;2023-04-06T14:12:16;9.30;99.90
14172;DHT22;7165;52.388;4.928;2023-04-06T14:14:42;9.30;99.90
14172;DHT22;7165;52.388;4.928;2023-04-06T14:17:09;9.20;99.90
14172;DHT22;7165;52.388;4.928;2023-04-06T14:19:36;9.20;99.90
14172;DHT22;7165;52.388;4.928;2023-04-06T14:22:03;9.10;99.90
14172;DHT22;7165;52.388;4.928;2023-04-06T14:24:30;9.10;99.90
14172;DHT22;7165;52.388;4.928;2023-04-06T14:26:58;9.10;99.90
14172;DHT22;7165;52.388;4.928;2023-04-06T14:29:26;9.10;99.90
14172;DHT22;7165;52.388;4.928;2023-04-06T14:31:53;9.00;99.90
14172;DHT22;7165;52.388;4.928;2023-04-06T14:34:24;9.00;99.90
14172;DHT22;7165;52.388;4.928;2023-04-06T14:36:51;9.00;99.90
14172;DHT22;7165;52.388;4.928;2023-04-06T14:39:18;9.00;99.90
14172;DHT22;7165;52.388;4.928;2023-04-06T14:41:45;9.00;99.90
14172;DHT22;7165;52.388;4.928;2023-04-06T14:44:15;9.00;99.90
14172;DHT22;7165;52.388;4.928;2023-04-06T14:46:42;9.00;99.90
14172;DHT22;7165;52.388;4.928;2023-04-06T14:49:08;8.90;99.90
14172;DHT22;7165;52.388;4.928;2023-04-06T14:51:35;8.90;99.90
14172;DHT22;7165;52.388;4.928;2023-04-06T14:54:02;8.90;99.90
14172;DHT22;7165;52.388;4.928;2023-04-06T14:56:29;8.90;99.90
14172;DHT22;7165;52.388;4.928;2023-04-06T14:58:57;9.00;99.90
14172;DHT22;7165;52.388;4.928;2023-04-06T15:01:26;8.90;99.90
14172;DHT22;7165;52.388;4.928;2023-04-06T15:03:53;8.90;99.90
14172;DHT22;7165;52.388;4.928;2023-04-06T15:06:20;8.90;99.90
14172;DHT22;7165;52.388;4.928;2023-04-06T15:08:47;8.90;99.90
14172;DHT22;7165;52.388;4.928;2023-04-06T15:11:14;8.80;99.90
14172;DHT22;7165;52.388;4.928;2023-04-06T15:13:41;8.90;99.90
14172;DHT22;7165;52.388;4.928;2023-04-06T15:16:08;8.80;99.90
14172;DHT22;7165;52.388;4.928;2023-04-06T15:18:36;8.90;99.90
14172;DHT22;7165;52.388;4.928;2023-04-06T15:21:03;8.90;99.90
14172;DHT22;7165;52.388;4.928;2023-04-06T15:23:30;8.90;99.90
14172;DHT22;7165;52.388;4.928;2023-04-06T15:25:57;8.80;99.90
14172;DHT22;7165;52.388;4.928;2023-04-06T15:28:24;8.90;99.90
14172;DHT22;7165;52.388;4.928;2023-04-06T15:30:51;8.80;99.90
14172;DHT22;7165;52.388;4.928;2023-04-06T15:33:19;8.80;99.90
14172;DHT22;7165;52.388;4.928;2023-04-06T15:35:48;8.80;99.90
14172;DHT22;7165;52.388;4.928;2023-04-06T15:38:15;8.80;99.90
14172;DHT22;7165;52.388;4.928;2023-04-06T15:40:46;8.90;99.90
14172;DHT22;7165;52.388;4.928;2023-04-06T15:43:13;8.90;99.90
14172;DHT22;7165;52.388;4.928;2023-04-06T15:45:40;8.80;99.90
14172;DHT22;7165;52.388;4.928;2023-04-06T15:48:07;8.90;99.90
14172;DHT22;7165;52.388;4.928;2023-04-06T15:50:35;8.90;99.90
14172;DHT22;7165;52.388;4.928;2023-04-06T15:53:03;8.80;99.90
14172;DHT22;7165;52.388;4.928;2023-04-06T15:55:29;8.80;99.90
14172;DHT22;7165;52.388;4.928;2023-04-06T15:57:56;8.80;99.90
14172;DHT22;7165;52.388;4.928;2023-04-06T16:00:23;8.80;99.90